Accueil
METAR-TAF:

METAR-TAF

Aéroports :

Île Norfolk, Australie

Aéroport international de l'île Norfolk

latitude: 29-02S, longitude: 167-56E, altitude: 113 m

Observation

Le bulletin a été fait il y a 48 minutes, à 13:00 UTC
Vent 10 kt de sud
Température 15°C
Humidité 63%
Pression 1019 hPa
Visibilité 10 km ou plus
Nuages épars à une hauteur de 4400 ft
Nuages fragmentés à une hauteur de 5200 ft

METAR: YSNF 211300Z AUTO 19010KT 9999 // SCT044 BKN052 15/08 Q1019

Heure: 23:48 (13:48 UTC)

Prévision

Le bulletin a été fait il y a 2 heures et 37 minutes, à 11:11 UTC
Prévision valable du 21 à 12 UTC au 22 à 12 UTC
Vent 13 kt de sud/sud-ouest
Visibilité 10 km ou plus
Nuages épars à une hauteur de 3000 ft
A partir de 22 à 0600 UTC
Vent 5 kt de sud-est
Visibilité 10 km ou plus
Nuages épars à une hauteur de 3000 ft

TAF: YSNF 211111Z 2112/2212 20013KT 9999 SCT030 FM220600 13005KT 9999 SCT030

Observations et prévisions météorologiques de plus de 4000 aéroports (messages METAR et TAF).

Les stations disponibles sont représentées par des disques jaunes et rouges sur la carte.

Passer la souris dessus pour voir le nom de la station.

Cliquer dessus pour voir les observations et prévisions météorologiques.

Pour changer de carte: cliquez sur les boutons verts avec une croix noire pour zoomer, sur le bouton vert avec un tiret pour effectuer un zoom arrière, ou sur les flèches vertes pour les cartes adjacentes.


METAR-TAF: